createdAt,value
2022-10-07T00:00:56.062Z,69.81
2022-10-07T00:03:24.252Z,69.99
2022-10-07T00:06:01.334Z,70.26
2022-10-07T00:08:27.915Z,70.49
2022-10-07T00:10:54.196Z,70.67
2022-10-07T00:13:20.594Z,70.90
2022-10-07T00:15:46.919Z,71.20
2022-10-07T00:18:13.250Z,71.30
2022-10-07T00:20:40.111Z,71.66
2022-10-07T00:23:07.828Z,71.82
2022-10-07T00:25:37.845Z,72.20
2022-10-07T00:28:13.722Z,72.21
2022-10-07T00:31:02.568Z,72.57
2022-10-07T00:33:37.946Z,72.63
2022-10-07T00:36:23.507Z,73.10
2022-10-07T00:39:01.644Z,72.96
2022-10-07T00:41:32.651Z,73.37
2022-10-07T00:44:00.276Z,73.49
2022-10-07T00:46:32.272Z,73.68
2022-10-07T00:49:05.231Z,73.77
2022-10-07T00:51:47.017Z,73.95
2022-10-07T00:54:17.058Z,74.27
2022-10-07T00:56:44.676Z,74.43
2022-10-07T00:59:13.980Z,74.53
2022-10-07T01:01:42.071Z,74.66
2022-10-07T01:04:10.254Z,74.92
2022-10-07T01:06:39.225Z,75.32
2022-10-07T01:09:11.047Z,75.63
2022-10-07T01:11:52.516Z,75.61
2022-10-07T01:14:24.697Z,75.81
2022-10-07T01:17:12.980Z,75.94
2022-10-07T01:19:58.214Z,76.34
2022-10-07T01:22:53.249Z,76.73
2022-10-07T01:25:46.390Z,76.87
2022-10-07T01:28:28.016Z,77.02
2022-10-07T01:31:00.750Z,77.27
2022-10-07T01:33:32.150Z,77.47
2022-10-07T01:36:04.822Z,77.44
2022-10-07T01:38:33.856Z,77.62
2022-10-07T01:41:15.041Z,78.19
2022-10-07T01:43:46.199Z,78.00
2022-10-07T01:46:18.457Z,78.39
2022-10-07T01:48:48.967Z,78.78
2022-10-07T01:51:18.808Z,78.44
2022-10-07T01:53:54.053Z,78.83
2022-10-07T01:56:48.513Z,78.76
2022-10-07T01:59:46.901Z,78.75
2022-10-07T02:02:41.257Z,78.67
2022-10-07T02:05:15.095Z,78.69
2022-10-07T02:08:04.563Z,79.25
2022-10-07T02:11:08.512Z,79.34
2022-10-07T02:14:11.993Z,79.46
2022-10-07T02:16:48.239Z,79.77
2022-10-07T02:19:19.514Z,79.84
2022-10-07T02:21:51.017Z,80.18
2022-10-07T02:24:22.679Z,80.20
2022-10-07T02:26:52.208Z,80.18
2022-10-07T02:29:21.720Z,80.02
2022-10-07T02:31:48.825Z,80.19
2022-10-07T02:34:23.989Z,80.70
2022-10-07T02:36:58.610Z,80.61
2022-10-07T02:39:25.056Z,80.37
2022-10-07T02:42:21.937Z,80.54
2022-10-07T02:44:53.291Z,80.73
2022-10-07T02:47:37.580Z,80.54
2022-10-07T02:50:10.870Z,81.04
2022-10-07T02:52:39.506Z,81.05
2022-10-07T02:55:09.486Z,81.13
2022-10-07T02:57:42.697Z,81.40
2022-10-07T03:00:11.418Z,81.42
2022-10-07T03:02:51.751Z,81.51
2022-10-07T03:05:20.317Z,81.86
2022-10-07T03:07:48.975Z,81.58
2022-10-07T03:10:15.707Z,81.81
2022-10-07T03:12:42.565Z,81.75
2022-10-07T03:15:11.552Z,81.84
2022-10-07T03:17:41.642Z,82.06
2022-10-07T03:20:09.831Z,81.98
2022-10-07T03:22:36.248Z,82.04
2022-10-07T03:25:02.799Z,82.12
2022-10-07T03:27:29.395Z,82.49
2022-10-07T03:29:58.386Z,82.84
2022-10-07T03:32:27.397Z,82.61
2022-10-07T03:34:54.777Z,82.56
2022-10-07T03:37:22.490Z,82.44
2022-10-07T03:39:49.182Z,82.62
2022-10-07T03:42:16.198Z,82.80
2022-10-07T03:44:42.849Z,82.80
2022-10-07T03:47:10.805Z,83.04
2022-10-07T03:49:37.652Z,83.05
2022-10-07T03:52:04.146Z,83.29
2022-10-07T03:54:31.499Z,82.98
2022-10-07T03:57:01.224Z,83.46
2022-10-07T03:59:27.607Z,83.50
2022-10-07T04:01:54.176Z,83.62
2022-10-07T04:04:20.600Z,83.92
2022-10-07T04:06:46.942Z,83.91
2022-10-07T04:09:13.940Z,83.87
2022-10-07T04:11:46.329Z,83.51
2022-10-07T04:14:16.924Z,83.67
2022-10-07T04:16:43.344Z,83.60
2022-10-07T04:19:10.102Z,83.69
2022-10-07T04:21:36.458Z,83.24
2022-10-07T04:24:02.868Z,83.35
2022-10-07T04:26:29.182Z,83.43
2022-10-07T04:28:55.614Z,83.25
2022-10-07T04:31:22.172Z,83.53
2022-10-07T04:33:48.691Z,83.23
2022-10-07T04:36:15.091Z,83.71
2022-10-07T04:38:42.583Z,83.52
2022-10-07T04:41:08.952Z,83.93
2022-10-07T04:43:35.322Z,83.41
2022-10-07T04:46:07.092Z,83.42
2022-10-07T04:48:33.534Z,83.71
2022-10-07T04:51:08.258Z,83.80
2022-10-07T04:53:36.406Z,83.92
2022-10-07T04:56:06.802Z,84.06
2022-10-07T04:58:38.990Z,84.08
2022-10-07T05:01:10.007Z,83.97
2022-10-07T05:03:45.376Z,83.89
2022-10-07T05:06:12.140Z,84.20
2022-10-07T05:08:38.509Z,83.77
2022-10-07T05:11:05.016Z,84.15
2022-10-07T05:13:31.542Z,84.27
2022-10-07T05:16:00.436Z,84.25
2022-10-07T05:18:28.906Z,84.07
2022-10-07T05:20:56.127Z,84.49
2022-10-07T05:23:28.339Z,84.44
2022-10-07T05:26:07.911Z,84.40
2022-10-07T05:28:35.417Z,84.08
2022-10-07T05:31:10.530Z,83.86
2022-10-07T05:33:40.212Z,83.85
2022-10-07T05:36:08.716Z,84.05
2022-10-07T05:38:35.363Z,83.91
2022-10-07T05:41:07.006Z,83.73
2022-10-07T05:43:36.374Z,83.76
2022-10-07T05:46:06.073Z,83.55
2022-10-07T05:48:38.677Z,83.68
2022-10-07T05:51:06.888Z,83.89
2022-10-07T05:53:34.828Z,83.58
2022-10-07T05:56:09.250Z,83.79
2022-10-07T05:58:36.110Z,83.44
2022-10-07T06:01:07.678Z,83.48
2022-10-07T06:03:37.083Z,83.60
2022-10-07T06:06:04.146Z,83.66
2022-10-07T06:08:30.535Z,83.32
2022-10-07T06:11:24.861Z,82.98
2022-10-07T06:13:53.018Z,83.06
2022-10-07T06:16:20.052Z,83.08
2022-10-07T06:18:47.685Z,82.71
2022-10-07T06:21:14.302Z,83.06
2022-10-07T06:23:40.620Z,83.17
2022-10-07T06:26:09.505Z,82.70
2022-10-07T06:28:41.107Z,82.86
2022-10-07T06:31:10.503Z,82.78
2022-10-07T06:33:37.553Z,82.63
2022-10-07T06:36:06.099Z,83.16
2022-10-07T06:38:33.118Z,82.74
2022-10-07T06:41:01.410Z,81.99
2022-10-07T06:43:29.352Z,81.30
2022-10-07T06:46:01.964Z,79.82
2022-10-07T06:48:29.307Z,78.55
2022-10-07T06:51:06.029Z,78.00
2022-10-07T06:53:33.123Z,77.61
2022-10-07T06:56:04.269Z,77.44
2022-10-07T06:58:30.766Z,77.08
2022-10-07T07:00:59.658Z,75.96
2022-10-07T07:03:27.149Z,76.09
2022-10-07T07:05:54.856Z,75.51
2022-10-07T07:08:24.311Z,75.47
2022-10-07T07:10:57.077Z,75.68
2022-10-07T07:13:24.871Z,75.78
2022-10-07T07:16:00.085Z,75.93
2022-10-07T07:18:26.809Z,76.13
2022-10-07T07:20:53.127Z,76.09
2022-10-07T07:23:23.718Z,76.44
2022-10-07T07:25:53.305Z,76.62
2022-10-07T07:28:19.981Z,76.28
2022-10-07T07:30:48.890Z,76.34
2022-10-07T07:33:15.256Z,76.28
2022-10-07T07:35:43.649Z,76.22
2022-10-07T07:38:10.175Z,76.20
2022-10-07T07:40:38.273Z,76.28
2022-10-07T07:43:05.827Z,76.31
2022-10-07T07:45:35.333Z,76.18
2022-10-07T07:48:01.706Z,76.16
2022-10-07T07:50:29.388Z,75.84
2022-10-07T07:53:04.899Z,75.72
2022-10-07T07:55:33.996Z,75.58
2022-10-07T07:58:00.392Z,75.74
2022-10-07T08:00:26.919Z,75.67
2022-10-07T08:02:55.237Z,75.43
2022-10-07T08:05:24.207Z,75.09
2022-10-07T08:07:52.344Z,75.11
2022-10-07T08:10:19.251Z,75.17
2022-10-07T08:12:45.842Z,75.62
2022-10-07T08:15:12.927Z,75.76
2022-10-07T08:17:39.255Z,73.32
2022-10-07T08:20:06.499Z,70.23
2022-10-07T08:22:33.729Z,68.16
2022-10-07T08:25:00.308Z,65.16
2022-10-07T08:27:28.126Z,61.81
2022-10-07T08:29:54.514Z,59.04
2022-10-07T08:32:23.482Z,57.99
2022-10-07T08:34:49.909Z,55.03
2022-10-07T08:37:20.090Z,54.58
2022-10-07T08:39:46.564Z,54.57
2022-10-07T08:42:28.033Z,54.02
2022-10-07T08:44:55.793Z,53.73
2022-10-07T08:47:30.567Z,53.28
2022-10-07T08:50:23.975Z,52.57
2022-10-07T08:53:02.913Z,52.71
2022-10-07T08:55:43.999Z,53.42
2022-10-07T08:58:15.658Z,54.10
2022-10-07T09:00:50.599Z,54.43
2022-10-07T09:03:39.059Z,55.36
2022-10-07T09:06:16.222Z,55.92
2022-10-07T09:08:48.075Z,56.52
2022-10-07T09:11:20.444Z,57.38
2022-10-07T09:13:56.389Z,56.78
2022-10-07T09:16:43.398Z,56.69
2022-10-07T09:19:36.176Z,57.14
2022-10-07T09:22:11.759Z,57.89
2022-10-07T09:24:38.559Z,58.11
2022-10-07T09:27:13.566Z,58.26
2022-10-07T09:29:43.097Z,58.51
2022-10-07T09:32:15.139Z,58.62
2022-10-07T09:34:41.580Z,59.13
2022-10-07T09:37:15.864Z,60.21
2022-10-07T09:39:43.936Z,61.11
2022-10-07T09:42:41.023Z,61.16
2022-10-07T09:45:25.212Z,62.48
2022-10-07T09:47:55.386Z,62.16
2022-10-07T09:50:32.726Z,62.87
2022-10-07T09:53:03.437Z,63.27
2022-10-07T09:55:42.669Z,63.83
2022-10-07T09:58:24.682Z,64.34
2022-10-07T10:00:52.305Z,64.27
2022-10-07T10:03:19.737Z,64.28
2022-10-07T10:05:58.409Z,64.13
2022-10-07T10:08:35.637Z,63.75
2022-10-07T10:11:07.257Z,63.81
2022-10-07T10:13:40.516Z,63.70
2022-10-07T10:16:28.788Z,62.42
2022-10-07T10:19:02.509Z,61.37
2022-10-07T10:21:32.616Z,59.90
2022-10-07T10:24:01.445Z,59.45
2022-10-07T10:27:00.036Z,58.04
2022-10-07T10:29:54.157Z,56.89
2022-10-07T10:32:43.515Z,56.34
2022-10-07T10:35:31.855Z,56.29
2022-10-07T10:38:17.253Z,54.92
2022-10-07T10:41:04.612Z,54.47
2022-10-07T10:43:43.200Z,53.26
2022-10-07T10:46:31.342Z,53.10
2022-10-07T10:49:22.854Z,52.55
2022-10-07T10:52:13.501Z,52.93
2022-10-07T10:55:01.099Z,53.65
2022-10-07T10:57:48.843Z,54.06
2022-10-07T11:00:20.892Z,54.54
2022-10-07T11:03:05.653Z,55.13
2022-10-07T11:05:37.390Z,55.21
2022-10-07T11:08:12.858Z,55.26
2022-10-07T11:10:50.096Z,55.76
2022-10-07T11:13:40.902Z,56.00
2022-10-07T11:16:18.270Z,55.57
2022-10-07T11:18:51.981Z,55.73
2022-10-07T11:21:25.452Z,56.08
2022-10-07T11:24:01.697Z,56.31
2022-10-07T11:26:42.215Z,56.34
2022-10-07T11:29:22.861Z,56.34
2022-10-07T11:32:08.121Z,56.66
2022-10-07T11:34:42.656Z,56.29
2022-10-07T11:37:22.175Z,56.35
2022-10-07T11:39:49.837Z,56.12
2022-10-07T11:42:22.642Z,56.39
2022-10-07T11:45:31.037Z,56.19
2022-10-07T11:48:01.554Z,56.03
2022-10-07T11:50:35.719Z,55.49
2022-10-07T11:53:09.660Z,55.51
2022-10-07T11:55:44.289Z,55.01
2022-10-07T11:58:31.562Z,54.42
2022-10-07T12:01:25.705Z,54.01
2022-10-07T12:03:54.557Z,53.88
2022-10-07T12:06:20.974Z,53.89
2022-10-07T12:08:47.718Z,53.71
2022-10-07T12:11:15.096Z,52.75
2022-10-07T12:13:45.154Z,52.99
2022-10-07T12:16:23.772Z,53.17
2022-10-07T12:19:10.420Z,52.83
2022-10-07T12:22:04.770Z,53.15
2022-10-07T12:24:34.537Z,52.77
2022-10-07T12:27:13.265Z,52.84
2022-10-07T12:29:50.770Z,52.91
2022-10-07T12:32:46.647Z,52.66
2022-10-07T12:35:34.848Z,52.92
2022-10-07T12:38:10.057Z,53.18
2022-10-07T12:40:37.494Z,53.28
2022-10-07T12:43:27.265Z,53.81
2022-10-07T12:45:54.655Z,54.18
2022-10-07T12:48:24.031Z,54.45
2022-10-07T12:50:54.180Z,54.80
2022-10-07T12:53:24.610Z,54.81
2022-10-07T12:55:55.223Z,54.75
2022-10-07T12:59:13.524Z,54.77
2022-10-07T13:01:47.164Z,54.68
2022-10-07T13:04:36.464Z,54.64
2022-10-07T13:08:07.203Z,54.46
2022-10-07T13:10:51.939Z,54.07
2022-10-07T13:13:26.124Z,53.84
2022-10-07T13:16:01.192Z,53.78
2022-10-07T13:18:42.900Z,54.13
2022-10-07T13:21:24.495Z,54.14
2022-10-07T13:23:53.569Z,54.18
2022-10-07T13:26:22.547Z,54.39
2022-10-07T13:28:51.972Z,54.50
2022-10-07T13:31:27.047Z,54.85
2022-10-07T13:33:56.727Z,54.81
2022-10-07T13:36:28.947Z,54.80
2022-10-07T13:39:35.570Z,54.90
2022-10-07T13:42:02.923Z,55.06
2022-10-07T13:44:33.337Z,55.03
2022-10-07T13:47:02.105Z,55.06
2022-10-07T13:49:51.248Z,55.15
2022-10-07T13:52:39.753Z,55.28
2022-10-07T13:55:32.463Z,55.65
2022-10-07T13:58:14.683Z,55.71
2022-10-07T14:00:46.089Z,55.88
2022-10-07T14:03:20.336Z,56.07
2022-10-07T14:05:52.703Z,56.05
2022-10-07T14:08:21.999Z,56.09
2022-10-07T14:11:18.699Z,56.41
2022-10-07T14:13:48.903Z,56.34
2022-10-07T14:16:23.953Z,56.40
2022-10-07T14:18:52.744Z,56.38
2022-10-07T14:21:19.476Z,55.70
2022-10-07T14:23:49.876Z,55.28
2022-10-07T14:26:17.585Z,55.12
2022-10-07T14:28:45.738Z,55.04
2022-10-07T14:31:34.450Z,55.02
2022-10-07T14:34:40.500Z,54.76
2022-10-07T14:37:11.909Z,54.68
2022-10-07T14:39:47.940Z,54.35
2022-10-07T14:42:28.917Z,54.28
2022-10-07T14:44:57.431Z,54.29
2022-10-07T14:47:26.061Z,54.69
2022-10-07T14:49:53.726Z,54.85
2022-10-07T14:52:32.261Z,54.66
2022-10-07T14:55:02.881Z,54.63
2022-10-07T14:57:29.994Z,54.51
2022-10-07T14:59:59.720Z,53.74
2022-10-07T15:02:26.417Z,53.47
2022-10-07T15:04:55.903Z,53.30
2022-10-07T15:07:22.370Z,53.47
2022-10-07T15:09:48.727Z,53.60
2022-10-07T15:12:27.241Z,53.85
2022-10-07T15:14:57.771Z,53.62
2022-10-07T15:17:24.359Z,53.63
2022-10-07T15:19:52.704Z,53.92
2022-10-07T15:22:19.139Z,53.86
2022-10-07T15:24:45.775Z,54.24
2022-10-07T15:27:12.349Z,54.32
2022-10-07T15:29:39.459Z,54.01
2022-10-07T15:32:07.772Z,54.20
2022-10-07T15:34:34.326Z,54.64
2022-10-07T15:37:01.110Z,54.80
2022-10-07T15:39:27.518Z,54.87
2022-10-07T15:41:57.791Z,55.11
2022-10-07T15:44:25.301Z,55.19
2022-10-07T15:46:59.542Z,55.46
2022-10-07T15:49:26.903Z,55.50
2022-10-07T15:52:00.827Z,55.63
2022-10-07T15:54:27.508Z,55.91
2022-10-07T15:56:54.130Z,56.00
2022-10-07T15:59:20.727Z,55.96
2022-10-07T16:01:50.678Z,56.07
2022-10-07T16:04:18.449Z,56.35
2022-10-07T16:06:51.788Z,56.60
2022-10-07T16:09:20.006Z,56.37
2022-10-07T16:11:47.533Z,56.36
2022-10-07T16:14:14.670Z,56.69
2022-10-07T16:16:41.854Z,56.47
2022-10-07T16:19:12.354Z,56.58
2022-10-07T16:21:41.692Z,56.57
2022-10-07T16:24:13.725Z,56.74
2022-10-07T16:26:44.637Z,56.90
2022-10-07T16:29:36.274Z,57.03
2022-10-07T16:32:03.450Z,57.20
2022-10-07T16:34:30.088Z,57.35
2022-10-07T16:37:05.353Z,57.42
2022-10-07T16:39:31.712Z,57.49
2022-10-07T16:41:59.766Z,57.71
2022-10-07T16:44:26.894Z,57.60
2022-10-07T16:46:56.858Z,58.01
2022-10-07T16:49:28.279Z,58.08
2022-10-07T16:51:55.275Z,58.35
2022-10-07T16:54:22.031Z,58.63
2022-10-07T16:56:53.919Z,58.77
2022-10-07T16:59:23.720Z,58.79
2022-10-07T17:01:53.143Z,58.97
2022-10-07T17:04:19.985Z,58.83
2022-10-07T17:06:47.592Z,59.21
2022-10-07T17:09:14.641Z,59.30
2022-10-07T17:11:41.752Z,59.40
2022-10-07T17:14:10.491Z,59.53
2022-10-07T17:16:39.781Z,59.72
2022-10-07T17:19:10.157Z,59.93
2022-10-07T17:21:37.963Z,59.90
2022-10-07T17:24:04.894Z,60.28
2022-10-07T17:26:31.413Z,60.54
2022-10-07T17:29:04.391Z,60.59
2022-10-07T17:31:31.420Z,60.99
2022-10-07T17:33:59.445Z,61.00
2022-10-07T17:36:27.155Z,61.14
2022-10-07T17:38:54.161Z,61.35
2022-10-07T17:41:26.072Z,61.53
2022-10-07T17:43:55.759Z,61.58
2022-10-07T17:46:24.035Z,62.00
2022-10-07T17:48:52.613Z,62.10
2022-10-07T17:51:20.893Z,62.15
2022-10-07T17:53:50.254Z,61.81
2022-10-07T17:56:17.185Z,62.39
2022-10-07T17:58:45.889Z,62.16
2022-10-07T18:01:24.025Z,62.44
2022-10-07T18:03:52.693Z,62.18
2022-10-07T18:06:20.367Z,62.47
2022-10-07T18:08:47.990Z,62.30
2022-10-07T18:11:18.058Z,62.34
2022-10-07T18:14:03.524Z,62.51
2022-10-07T18:16:34.715Z,62.60
2022-10-07T18:19:05.948Z,62.63
2022-10-07T18:21:34.546Z,62.71
2022-10-07T18:24:01.806Z,62.73
2022-10-07T18:26:30.998Z,62.63
2022-10-07T18:28:58.171Z,62.62
2022-10-07T18:31:24.668Z,62.81
2022-10-07T18:33:51.370Z,62.74
2022-10-07T18:36:21.024Z,62.46
2022-10-07T18:38:47.597Z,62.50
2022-10-07T18:41:23.633Z,62.49
2022-10-07T18:43:54.092Z,62.49
2022-10-07T18:46:20.699Z,62.19
2022-10-07T18:48:50.198Z,62.49
2022-10-07T18:51:17.631Z,62.57
2022-10-07T18:53:48.863Z,62.81
2022-10-07T18:56:18.654Z,62.93
2022-10-07T18:58:47.587Z,63.02
2022-10-07T19:01:20.067Z,63.06
2022-10-07T19:03:48.716Z,63.28
2022-10-07T19:06:20.620Z,63.24
2022-10-07T19:08:47.259Z,63.47
2022-10-07T19:11:16.860Z,63.64
2022-10-07T19:13:58.973Z,64.33
2022-10-07T19:16:30.197Z,64.73
2022-10-07T19:18:59.231Z,64.78
2022-10-07T19:21:26.872Z,65.00
2022-10-07T19:23:57.606Z,65.22
2022-10-07T19:26:26.425Z,65.23
2022-10-07T19:28:54.390Z,65.36
2022-10-07T19:31:32.184Z,65.58
2022-10-07T19:34:03.540Z,65.55
2022-10-07T19:36:32.514Z,65.75
2022-10-07T19:38:59.721Z,65.86
2022-10-07T19:41:30.051Z,65.87
2022-10-07T19:43:57.827Z,66.20
2022-10-07T19:46:30.540Z,66.32
2022-10-07T19:48:58.976Z,66.09
2022-10-07T19:51:27.540Z,66.43
2022-10-07T19:53:59.693Z,66.65
2022-10-07T19:56:29.206Z,66.65
2022-10-07T19:58:57.883Z,66.73
2022-10-07T20:01:27.174Z,66.68
2022-10-07T20:04:02.067Z,66.80
2022-10-07T20:06:29.099Z,66.83
2022-10-07T20:08:56.593Z,66.87
2022-10-07T20:11:23.503Z,66.82
2022-10-07T20:13:50.714Z,66.93
2022-10-07T20:16:20.479Z,67.08
2022-10-07T20:18:49.909Z,67.14
2022-10-07T20:21:19.217Z,67.36
2022-10-07T20:23:51.849Z,67.58
2022-10-07T20:26:24.977Z,67.89
2022-10-07T20:28:54.237Z,67.97
2022-10-07T20:31:23.099Z,68.18
2022-10-07T20:33:51.882Z,68.28
2022-10-07T20:36:21.013Z,68.37
2022-10-07T20:39:07.610Z,68.40
2022-10-07T20:42:03.618Z,68.42
2022-10-07T20:44:30.190Z,68.47
2022-10-07T20:46:57.322Z,68.56
2022-10-07T20:49:28.114Z,68.78
2022-10-07T20:51:57.586Z,68.95
2022-10-07T20:54:26.953Z,69.21
2022-10-07T20:56:54.780Z,69.11
2022-10-07T20:59:21.305Z,69.07
2022-10-07T21:01:48.489Z,69.28
2022-10-07T21:04:15.712Z,69.52
2022-10-07T21:06:42.924Z,69.62
2022-10-07T21:09:14.725Z,69.71
2022-10-07T21:11:41.469Z,69.89
2022-10-07T21:14:08.227Z,69.97
2022-10-07T21:16:36.261Z,70.07
2022-10-07T21:19:03.613Z,70.12
2022-10-07T21:21:36.095Z,70.15
2022-10-07T21:24:02.823Z,70.39
2022-10-07T21:26:29.955Z,70.76
2022-10-07T21:28:56.673Z,71.12
2022-10-07T21:31:25.773Z,71.21
2022-10-07T21:33:52.988Z,71.33
2022-10-07T21:36:21.821Z,71.54
2022-10-07T21:38:55.155Z,71.52
2022-10-07T21:41:24.517Z,71.68
2022-10-07T21:43:55.777Z,71.97
2022-10-07T21:46:24.103Z,71.98
2022-10-07T21:48:50.731Z,72.10
2022-10-07T21:51:17.388Z,72.37
2022-10-07T21:53:45.618Z,72.35
2022-10-07T21:56:13.422Z,72.30
2022-10-07T21:58:42.693Z,72.59
2022-10-07T22:01:14.036Z,72.42
2022-10-07T22:03:40.955Z,72.34
2022-10-07T22:06:09.941Z,72.61
2022-10-07T22:08:37.226Z,72.53
2022-10-07T22:11:13.829Z,72.55
2022-10-07T22:13:45.717Z,72.65
2022-10-07T22:16:16.576Z,72.57
2022-10-07T22:18:46.142Z,72.92
2022-10-07T22:21:15.474Z,72.89
2022-10-07T22:23:43.131Z,73.01
2022-10-07T22:26:12.815Z,72.91
2022-10-07T22:28:50.655Z,73.01
2022-10-07T22:31:17.675Z,73.13
2022-10-07T22:33:49.336Z,73.21
2022-10-07T22:36:15.753Z,73.21
2022-10-07T22:38:45.592Z,73.44
2022-10-07T22:41:14.733Z,73.68
2022-10-07T22:43:44.177Z,73.99
2022-10-07T22:46:18.762Z,74.17
2022-10-07T22:48:50.009Z,74.43
2022-10-07T22:51:16.809Z,74.52
2022-10-07T22:53:48.398Z,75.00
2022-10-07T22:56:17.596Z,74.80
2022-10-07T22:58:52.185Z,75.24
2022-10-07T23:01:18.926Z,75.13
2022-10-07T23:03:46.441Z,75.47
2022-10-07T23:06:17.018Z,75.49
2022-10-07T23:08:44.230Z,75.71
2022-10-07T23:11:15.314Z,75.76
2022-10-07T23:13:42.180Z,75.67
2022-10-07T23:16:12.032Z,75.93
2022-10-07T23:18:43.025Z,76.20
2022-10-07T23:21:21.093Z,76.48
2022-10-07T23:23:50.262Z,77.43
2022-10-07T23:26:19.333Z,78.80
2022-10-07T23:28:47.084Z,80.42
2022-10-07T23:31:18.117Z,81.03
2022-10-07T23:33:47.235Z,81.74
2022-10-07T23:36:14.892Z,82.38
2022-10-07T23:38:44.780Z,82.92
2022-10-07T23:41:16.504Z,83.59
2022-10-07T23:43:43.022Z,83.97
2022-10-07T23:46:13.256Z,84.51
2022-10-07T23:48:41.277Z,84.69
2022-10-07T23:51:10.426Z,84.77
2022-10-07T23:53:36.880Z,85.17
2022-10-07T23:56:03.574Z,84.94
2022-10-07T23:58:31.329Z,85.37
